createdAt,value
2018-08-18T00:00:29.882Z,1015.37
2018-08-18T00:01:29.861Z,1015.36
2018-08-18T00:02:29.846Z,1015.36
2018-08-18T00:03:29.830Z,1015.40
2018-08-18T00:04:29.815Z,1015.40
2018-08-18T00:05:29.796Z,1015.39
2018-08-18T00:06:29.783Z,1015.38
2018-08-18T00:07:29.765Z,1015.38
2018-08-18T00:08:29.745Z,1015.36
2018-08-18T00:09:29.731Z,1015.37
2018-08-18T00:10:29.723Z,1015.39
2018-08-18T00:11:29.697Z,1015.41
2018-08-18T00:12:29.681Z,1015.39
2018-08-18T00:13:29.666Z,1015.38
2018-08-18T00:14:29.646Z,1015.41
2018-08-18T00:15:29.633Z,1015.40
2018-08-18T00:16:29.622Z,1015.43
2018-08-18T00:17:29.602Z,1015.41
2018-08-18T00:18:29.580Z,1015.38
2018-08-18T00:19:29.567Z,1015.43
2018-08-18T00:20:29.549Z,1015.44
2018-08-18T00:21:29.533Z,1015.41
2018-08-18T00:22:29.512Z,1015.41
2018-08-18T00:23:29.500Z,1015.43
2018-08-18T00:24:29.482Z,1015.40
2018-08-18T00:25:29.463Z,1015.44
2018-08-18T00:26:29.448Z,1015.41
2018-08-18T00:27:29.439Z,1015.40
2018-08-18T00:28:29.415Z,1015.39
2018-08-18T00:29:29.396Z,1015.41
2018-08-18T00:30:29.382Z,1015.41
2018-08-18T00:31:29.363Z,1015.45
2018-08-18T00:32:29.348Z,1015.38
2018-08-18T00:33:29.330Z,1015.40
2018-08-18T00:34:29.313Z,1015.41
2018-08-18T00:35:29.301Z,1015.38
2018-08-18T00:36:29.278Z,1015.39
2018-08-18T00:37:29.265Z,1015.36
2018-08-18T00:38:29.252Z,1015.37
2018-08-18T00:39:29.229Z,1015.38
2018-08-18T00:40:29.211Z,1015.38
2018-08-18T00:41:29.204Z,1015.38
2018-08-18T00:42:29.190Z,1015.39
2018-08-18T00:43:29.160Z,1015.38
2018-08-18T00:44:29.145Z,1015.39
2018-08-18T00:45:29.129Z,1015.38
2018-08-18T00:46:29.114Z,1015.35
2018-08-18T00:47:29.098Z,1015.39
2018-08-18T00:48:29.087Z,1015.39
2018-08-18T00:49:29.062Z,1015.38
2018-08-18T00:50:29.050Z,1015.41
2018-08-18T00:51:29.027Z,1015.35
2018-08-18T00:52:29.012Z,1015.34
2018-08-18T00:53:28.993Z,1015.35
2018-08-18T00:54:28.976Z,1015.35
2018-08-18T00:55:28.960Z,1015.36
2018-08-18T00:56:28.953Z,1015.39
2018-08-18T00:57:28.926Z,1015.37
2018-08-18T00:58:28.909Z,1015.39
2018-08-18T00:59:28.892Z,1015.39
2018-08-18T01:00:28.879Z,1015.39
2018-08-18T01:01:28.858Z,1015.43
2018-08-18T01:02:28.841Z,1015.43
2018-08-18T01:03:28.831Z,1015.43
2018-08-18T01:04:28.808Z,1015.47
2018-08-18T01:05:28.792Z,1015.47
2018-08-18T01:06:28.774Z,1015.50
2018-08-18T01:07:28.759Z,1015.50
2018-08-18T01:08:28.741Z,1015.49
2018-08-18T01:09:28.724Z,1015.48
2018-08-18T01:10:28.705Z,1015.43
2018-08-18T01:11:28.737Z,1015.48
2018-08-18T01:12:28.821Z,1015.44
2018-08-18T01:13:28.655Z,1015.47
2018-08-18T01:14:28.771Z,1015.45
2018-08-18T01:15:28.624Z,1015.44
2018-08-18T01:16:28.607Z,1015.45
2018-08-18T01:17:28.585Z,1015.47
2018-08-18T01:18:28.569Z,1015.49
2018-08-18T01:19:28.553Z,1015.47
2018-08-18T01:20:28.540Z,1015.47
2018-08-18T01:21:28.588Z,1015.49
2018-08-18T01:22:28.506Z,1015.49
2018-08-18T01:23:28.485Z,1015.53
2018-08-18T01:24:28.469Z,1015.51
2018-08-18T01:25:28.451Z,1015.49
2018-08-18T01:26:28.434Z,1015.52
2018-08-18T01:27:28.416Z,1015.52
2018-08-18T01:28:28.408Z,1015.54
2018-08-18T01:29:28.385Z,1015.54
2018-08-18T01:30:28.367Z,1015.55
2018-08-18T01:31:28.349Z,1015.56
2018-08-18T01:32:28.332Z,1015.56
2018-08-18T01:33:28.318Z,1015.58
2018-08-18T01:34:28.309Z,1015.59
2018-08-18T01:35:28.278Z,1015.58
2018-08-18T01:36:28.267Z,1015.54
2018-08-18T01:37:28.250Z,1015.54
2018-08-18T01:38:28.230Z,1015.55
2018-08-18T01:39:28.212Z,1015.54
2018-08-18T01:40:28.195Z,1015.54
2018-08-18T01:41:28.179Z,1015.54
2018-08-18T01:42:28.160Z,1015.57
2018-08-18T01:43:28.144Z,1015.57
2018-08-18T01:44:28.131Z,1015.58
2018-08-18T01:45:28.110Z,1015.61
2018-08-18T01:46:28.091Z,1015.59
2018-08-18T01:47:28.073Z,1015.57
2018-08-18T01:48:28.059Z,1015.60
2018-08-18T01:49:28.040Z,1015.57
2018-08-18T01:50:28.024Z,1015.64
2018-08-18T01:51:28.011Z,1015.62
2018-08-18T01:52:27.990Z,1015.63
2018-08-18T01:53:27.982Z,1015.63
2018-08-18T01:54:27.957Z,1015.63
2018-08-18T01:55:27.939Z,1015.66
2018-08-18T01:56:27.922Z,1015.64
2018-08-18T01:57:27.904Z,1015.65
2018-08-18T01:58:27.889Z,1015.62
2018-08-18T01:59:27.870Z,1015.64
2018-08-18T02:00:27.854Z,1015.65
2018-08-18T02:01:27.835Z,1015.64
2018-08-18T02:02:27.817Z,1015.64
2018-08-18T02:03:27.802Z,1015.64
2018-08-18T02:04:27.788Z,1015.60
2018-08-18T02:05:27.766Z,1015.56
2018-08-18T02:06:27.749Z,1015.63
2018-08-18T02:07:27.733Z,1015.61
2018-08-18T02:08:27.715Z,1015.60
2018-08-18T02:09:27.699Z,1015.56
2018-08-18T02:10:27.682Z,1015.58
2018-08-18T02:11:27.669Z,1015.59
2018-08-18T02:12:27.646Z,1015.58
2018-08-18T02:13:27.629Z,1015.59
2018-08-18T02:14:27.613Z,1015.60
2018-08-18T02:15:27.595Z,1015.60
2018-08-18T02:16:27.578Z,1015.58
2018-08-18T02:17:27.560Z,1015.60
2018-08-18T02:18:27.552Z,1015.60
2018-08-18T02:19:27.527Z,1015.60
2018-08-18T02:20:27.512Z,1015.61
2018-08-18T02:21:27.492Z,1015.57
2018-08-18T02:22:27.479Z,1015.61
2018-08-18T02:23:27.465Z,1015.56
2018-08-18T02:24:27.444Z,1015.55
2018-08-18T02:25:27.427Z,1015.53
2018-08-18T02:26:27.405Z,1015.52
2018-08-18T02:27:27.391Z,1015.55
2018-08-18T02:28:27.373Z,1015.55
2018-08-18T02:29:27.354Z,1015.55
2018-08-18T02:30:27.338Z,1015.54
2018-08-18T02:31:27.319Z,1015.51
2018-08-18T02:32:27.304Z,1015.53
2018-08-18T02:33:27.283Z,1015.49
2018-08-18T02:34:27.270Z,1015.47
2018-08-18T02:35:27.248Z,1015.46
2018-08-18T02:36:27.231Z,1015.47
2018-08-18T02:37:27.214Z,1015.51
2018-08-18T02:38:27.197Z,1015.49
2018-08-18T02:39:27.181Z,1015.51
2018-08-18T02:40:27.170Z,1015.51
2018-08-18T02:41:27.150Z,1015.52
2018-08-18T02:42:27.136Z,1015.53
2018-08-18T02:43:27.113Z,1015.53
2018-08-18T02:44:27.094Z,1015.51
2018-08-18T02:45:27.077Z,1015.48
2018-08-18T02:46:27.058Z,1015.48
2018-08-18T02:47:27.042Z,1015.47
2018-08-18T02:48:27.029Z,1015.46
2018-08-18T02:49:27.008Z,1015.46
2018-08-18T02:50:26.990Z,1015.48
2018-08-18T02:51:26.974Z,1015.48
2018-08-18T02:52:26.955Z,1015.47
2018-08-18T02:53:26.937Z,1015.45
2018-08-18T02:54:26.925Z,1015.43
2018-08-18T02:55:26.905Z,1015.42
2018-08-18T02:56:26.885Z,1015.45
2018-08-18T02:57:26.868Z,1015.44
2018-08-18T02:58:26.850Z,1015.43
2018-08-18T02:59:26.838Z,1015.41
2018-08-18T03:00:26.819Z,1015.44
2018-08-18T03:01:26.800Z,1015.47
2018-08-18T03:02:26.783Z,1015.46
2018-08-18T03:03:26.764Z,1015.46
2018-08-18T03:04:26.757Z,1015.51
2018-08-18T03:05:26.738Z,1015.58
2018-08-18T03:06:26.715Z,1015.62
2018-08-18T03:07:26.695Z,1015.63
2018-08-18T03:08:26.680Z,1015.61
2018-08-18T03:09:26.662Z,1015.65
2018-08-18T03:10:26.651Z,1015.65
2018-08-18T03:11:26.628Z,1015.65
2018-08-18T03:12:26.609Z,1015.65
2018-08-18T03:13:26.592Z,1015.67
2018-08-18T03:14:26.577Z,1015.70
2018-08-18T03:15:26.557Z,1015.67
2018-08-18T03:16:26.539Z,1015.71
2018-08-18T03:17:26.523Z,1015.71
2018-08-18T03:18:26.506Z,1015.74
2018-08-18T03:19:26.491Z,1015.78
2018-08-18T03:20:26.475Z,1015.77
2018-08-18T03:21:26.452Z,1015.77
2018-08-18T03:22:26.436Z,1015.73
2018-08-18T03:23:26.417Z,1015.75
2018-08-18T03:24:26.401Z,1015.75
2018-08-18T03:25:26.381Z,1015.73
2018-08-18T03:26:26.365Z,1015.74
2018-08-18T03:27:26.349Z,1015.72
2018-08-18T03:28:26.333Z,1015.76
2018-08-18T03:29:26.316Z,1015.73
2018-08-18T03:30:26.293Z,1015.74
2018-08-18T03:31:26.276Z,1015.71
2018-08-18T03:32:26.260Z,1015.75
2018-08-18T03:33:26.240Z,1015.73
2018-08-18T03:34:26.224Z,1015.75
2018-08-18T03:35:26.209Z,1015.76
2018-08-18T03:36:26.199Z,1015.74
2018-08-18T03:37:26.173Z,1015.74
2018-08-18T03:38:26.156Z,1015.73
2018-08-18T03:39:26.139Z,1015.72
2018-08-18T03:40:26.121Z,1015.74
2018-08-18T03:41:26.110Z,1015.69
2018-08-18T03:42:26.084Z,1015.73
2018-08-18T03:43:26.069Z,1015.74
2018-08-18T03:44:26.051Z,1015.73
2018-08-18T03:45:26.031Z,1015.74
2018-08-18T03:46:26.015Z,1015.73
2018-08-18T03:47:25.999Z,1015.75
2018-08-18T03:48:25.980Z,1015.70
2018-08-18T03:49:25.963Z,1015.72
2018-08-18T03:50:25.944Z,1015.68
2018-08-18T03:51:25.927Z,1015.70
2018-08-18T03:52:25.938Z,1015.69
2018-08-18T03:53:25.892Z,1015.74
2018-08-18T03:54:25.873Z,1015.69
2018-08-18T03:55:25.860Z,1015.73
2018-08-18T03:56:25.841Z,1015.70
2018-08-18T03:57:25.820Z,1015.74
2018-08-18T03:58:25.803Z,1015.77
2018-08-18T03:59:25.786Z,1015.76
2018-08-18T04:00:25.767Z,1015.83
2018-08-18T04:01:25.752Z,1015.84
2018-08-18T04:02:25.743Z,1015.86
2018-08-18T04:03:25.715Z,1015.90
2018-08-18T04:04:25.698Z,1015.89
2018-08-18T04:05:25.679Z,1015.90
2018-08-18T04:06:25.663Z,1015.90
2018-08-18T04:07:25.645Z,1015.91
2018-08-18T04:08:25.628Z,1015.91
2018-08-18T04:09:25.710Z,1015.89
2018-08-18T04:10:25.596Z,1015.93
2018-08-18T04:11:25.579Z,1015.96
2018-08-18T04:12:25.557Z,1015.91
2018-08-18T04:13:25.543Z,1015.97
2018-08-18T04:14:25.566Z,1015.97
2018-08-18T04:15:25.505Z,1015.94
2018-08-18T04:16:25.485Z,1015.95
2018-08-18T04:17:25.469Z,1015.96
2018-08-18T04:18:25.456Z,1015.92
2018-08-18T04:19:25.502Z,1015.92
2018-08-18T04:20:25.419Z,1015.93
2018-08-18T04:21:25.398Z,1015.93
2018-08-18T04:22:25.381Z,1015.92
2018-08-18T04:23:25.364Z,1015.91
2018-08-18T04:24:25.348Z,1015.92
2018-08-18T04:25:25.458Z,1015.93
2018-08-18T04:26:25.315Z,1015.93
2018-08-18T04:27:25.297Z,1015.96
2018-08-18T04:28:25.276Z,1015.99
2018-08-18T04:29:25.257Z,1015.99
2018-08-18T04:30:25.244Z,1016.02
2018-08-18T04:31:25.222Z,1016.02
2018-08-18T04:32:25.206Z,1016.05
2018-08-18T04:33:25.190Z,1016.05
2018-08-18T04:34:25.190Z,1016.04
2018-08-18T04:35:25.209Z,1016.04
2018-08-18T04:36:25.133Z,1016.06
2018-08-18T04:37:25.119Z,1016.04
2018-08-18T04:38:25.096Z,1016.07
2018-08-18T04:39:25.080Z,1016.06
2018-08-18T04:40:25.064Z,1016.09
2018-08-18T04:41:25.044Z,1016.10
2018-08-18T04:42:25.031Z,1016.07
2018-08-18T04:43:25.010Z,1016.11
2018-08-18T04:44:25.012Z,1016.06
2018-08-18T04:45:24.989Z,1016.10
2018-08-18T04:46:24.957Z,1016.07
2018-08-18T04:47:24.938Z,1016.06
2018-08-18T04:48:24.919Z,1016.07
2018-08-18T04:49:24.910Z,1016.10
2018-08-18T04:50:24.909Z,1016.13
2018-08-18T04:51:24.868Z,1016.12
2018-08-18T04:52:24.853Z,1016.12
2018-08-18T04:53:24.831Z,1016.13
2018-08-18T04:54:24.818Z,1016.09
2018-08-18T04:55:24.796Z,1016.11
2018-08-18T04:56:24.779Z,1016.11
2018-08-18T04:57:24.769Z,1016.10
2018-08-18T04:58:24.745Z,1016.08
2018-08-18T04:59:24.836Z,1016.11
2018-08-18T05:00:24.709Z,1016.09
2018-08-18T05:01:24.688Z,1016.10
2018-08-18T05:02:24.675Z,1016.10
2018-08-18T05:03:24.688Z,1016.07
2018-08-18T05:04:24.638Z,1016.07
2018-08-18T05:05:24.619Z,1016.06
2018-08-18T05:06:24.602Z,1016.10
2018-08-18T05:07:24.584Z,1016.07
2018-08-18T05:08:24.569Z,1016.13
2018-08-18T05:09:24.547Z,1016.11
2018-08-18T05:10:24.532Z,1016.12
2018-08-18T05:11:24.512Z,1016.12
2018-08-18T05:12:24.499Z,1016.14
2018-08-18T05:13:24.480Z,1016.11
2018-08-18T05:14:24.460Z,1016.13
2018-08-18T05:15:24.443Z,1016.16
2018-08-18T05:16:24.424Z,1016.17
2018-08-18T05:17:24.406Z,1016.14
2018-08-18T05:18:24.392Z,1016.15
2018-08-18T05:19:24.504Z,1016.18
2018-08-18T05:20:24.357Z,1016.15
2018-08-18T05:21:24.347Z,1016.17
2018-08-18T05:22:24.319Z,1016.16
2018-08-18T05:23:24.303Z,1016.14
2018-08-18T05:24:24.292Z,1016.16
2018-08-18T05:25:24.272Z,1016.14
2018-08-18T05:26:24.248Z,1016.12
2018-08-18T05:27:24.231Z,1016.07
2018-08-18T05:28:24.213Z,1016.10
2018-08-18T05:29:24.195Z,1016.10
2018-08-18T05:30:24.177Z,1016.08
2018-08-18T05:31:24.161Z,1016.11
2018-08-18T05:32:24.147Z,1016.10
2018-08-18T05:33:24.126Z,1016.11
2018-08-18T05:34:24.108Z,1016.09
2018-08-18T05:35:24.096Z,1016.09
2018-08-18T05:36:24.115Z,1016.13
2018-08-18T05:37:24.056Z,1016.10
2018-08-18T05:38:24.037Z,1016.11
2018-08-18T05:39:24.030Z,1016.13
2018-08-18T05:40:24.005Z,1016.14
2018-08-18T05:41:23.991Z,1016.13
2018-08-18T05:42:23.967Z,1016.15
2018-08-18T05:43:23.951Z,1016.14
2018-08-18T05:44:23.931Z,1016.18
2018-08-18T05:45:23.918Z,1016.16
2018-08-18T05:46:23.900Z,1016.17
2018-08-18T05:47:23.914Z,1016.20
2018-08-18T05:48:23.861Z,1016.21
2018-08-18T05:49:23.843Z,1016.18
2018-08-18T05:50:23.826Z,1016.18
2018-08-18T05:51:23.818Z,1016.20
2018-08-18T05:52:23.792Z,1016.21
2018-08-18T05:53:23.775Z,1016.22
2018-08-18T05:54:23.755Z,1016.18
2018-08-18T05:55:23.738Z,1016.17
2018-08-18T05:56:23.722Z,1016.18
2018-08-18T05:57:23.704Z,1016.22
2018-08-18T05:58:23.689Z,1016.21
2018-08-18T05:59:23.679Z,1016.19
2018-08-18T06:00:23.653Z,1016.21
2018-08-18T06:01:23.636Z,1016.17
2018-08-18T06:02:23.618Z,1016.19
2018-08-18T06:03:23.600Z,1016.18
2018-08-18T06:04:23.584Z,1016.20
2018-08-18T06:05:23.567Z,1016.23
2018-08-18T06:06:23.548Z,1016.21
2018-08-18T06:07:23.530Z,1016.22
2018-08-18T06:08:23.515Z,1016.27
2018-08-18T06:09:23.493Z,1016.28
2018-08-18T06:10:23.478Z,1016.30
2018-08-18T06:11:23.463Z,1016.30
2018-08-18T06:12:23.444Z,1016.31
2018-08-18T06:13:23.425Z,1016.31
2018-08-18T06:14:23.407Z,1016.35
2018-08-18T06:15:23.392Z,1016.37
2018-08-18T06:16:23.374Z,1016.42
2018-08-18T06:17:23.356Z,1016.47
2018-08-18T06:18:23.339Z,1016.48
2018-08-18T06:19:23.328Z,1016.48
2018-08-18T06:20:23.307Z,1016.52
2018-08-18T06:21:23.294Z,1016.52
2018-08-18T06:22:23.269Z,1016.53
2018-08-18T06:23:23.254Z,1016.52
2018-08-18T06:24:23.282Z,1016.51
2018-08-18T06:25:23.223Z,1016.50
2018-08-18T06:26:23.202Z,1016.54
2018-08-18T06:27:23.184Z,1016.53
2018-08-18T06:28:23.169Z,1016.51
2018-08-18T06:29:23.149Z,1016.55
2018-08-18T06:30:23.135Z,1016.56
2018-08-18T06:31:23.126Z,1016.59
2018-08-18T06:32:23.099Z,1016.58
2018-08-18T06:33:23.080Z,1016.62
2018-08-18T06:34:23.079Z,1016.61
2018-08-18T06:35:23.047Z,1016.59
2018-08-18T06:36:23.033Z,1016.64
2018-08-18T06:37:23.013Z,1016.66
2018-08-18T06:38:22.995Z,1016.66
2018-08-18T06:39:22.978Z,1016.68
2018-08-18T06:40:22.961Z,1016.66
2018-08-18T06:41:23.011Z,1016.67
2018-08-18T06:42:22.928Z,1016.62
2018-08-18T06:43:22.907Z,1016.68
2018-08-18T06:44:22.892Z,1016.68
2018-08-18T06:45:22.873Z,1016.65
2018-08-18T06:46:22.854Z,1016.66
2018-08-18T06:47:22.842Z,1016.65
2018-08-18T06:48:22.825Z,1016.67
2018-08-18T06:49:22.802Z,1016.69
2018-08-18T06:50:22.786Z,1016.66
2018-08-18T06:51:22.769Z,1016.69
2018-08-18T06:52:22.766Z,1016.67
2018-08-18T06:53:22.735Z,1016.69
2018-08-18T06:54:22.837Z,1016.72
2018-08-18T06:55:22.699Z,1016.75
2018-08-18T06:56:22.686Z,1016.74
2018-08-18T06:57:22.664Z,1016.72
2018-08-18T06:58:22.648Z,1016.73
2018-08-18T06:59:22.632Z,1016.68
2018-08-18T07:00:22.614Z,1016.68
2018-08-18T07:01:22.604Z,1016.69
2018-08-18T07:02:22.579Z,1016.71
2018-08-18T07:03:22.566Z,1016.69
2018-08-18T07:04:22.548Z,1016.73
2018-08-18T07:05:22.530Z,1016.71
2018-08-18T07:06:22.512Z,1016.74
2018-08-18T07:07:22.494Z,1016.75
2018-08-18T07:08:22.478Z,1016.75
2018-08-18T07:09:22.464Z,1016.72
2018-08-18T07:10:22.447Z,1016.76
2018-08-18T07:11:22.424Z,1016.76
2018-08-18T07:12:22.408Z,1016.74
2018-08-18T07:13:22.388Z,1016.75
2018-08-18T07:14:22.373Z,1016.73
2018-08-18T07:15:22.358Z,1016.75
2018-08-18T07:16:22.338Z,1016.74
2018-08-18T07:17:22.325Z,1016.70
2018-08-18T07:18:22.313Z,1016.68
2018-08-18T07:19:22.343Z,1016.67
2018-08-18T07:20:22.272Z,1016.67
2018-08-18T07:21:22.252Z,1016.67
2018-08-18T07:22:22.243Z,1016.67
2018-08-18T07:23:22.229Z,1016.65
2018-08-18T07:24:22.202Z,1016.65
2018-08-18T07:25:22.190Z,1016.69
2018-08-18T07:26:22.170Z,1016.71
2018-08-18T07:27:22.154Z,1016.70
2018-08-18T07:28:22.171Z,1016.73
2018-08-18T07:29:22.122Z,1016.76
2018-08-18T07:30:22.101Z,1016.75
2018-08-18T07:31:22.085Z,1016.79
2018-08-18T07:32:22.080Z,1016.76
2018-08-18T07:33:22.052Z,1016.76
2018-08-18T07:34:22.032Z,1016.75
2018-08-18T07:35:22.022Z,1016.79
2018-08-18T07:36:22.001Z,1016.83
2018-08-18T07:37:22.028Z,1016.85
2018-08-18T07:38:21.966Z,1016.84
2018-08-18T07:39:21.949Z,1016.84
2018-08-18T07:40:21.934Z,1016.86
2018-08-18T07:41:21.919Z,1016.90
2018-08-18T07:42:21.915Z,1016.87
2018-08-18T07:43:21.884Z,1016.90
2018-08-18T07:44:21.871Z,1016.91
2018-08-18T07:45:21.851Z,1016.94
2018-08-18T07:46:21.885Z,1016.90
2018-08-18T07:47:21.829Z,1016.92
2018-08-18T07:48:21.805Z,1016.93
2018-08-18T07:49:21.789Z,1016.96
2018-08-18T07:50:21.770Z,1016.95
2018-08-18T07:51:21.762Z,1017.02
2018-08-18T07:52:21.747Z,1017.00
2018-08-18T07:53:21.751Z,1017.04
2018-08-18T07:54:21.711Z,1017.05
2018-08-18T07:55:21.690Z,1017.01
2018-08-18T07:56:21.675Z,1017.01
2018-08-18T07:57:21.658Z,1017.04
2018-08-18T07:58:21.640Z,1017.03
2018-08-18T07:59:21.624Z,1017.01
2018-08-18T08:00:21.610Z,1017.03
2018-08-18T08:01:21.591Z,1016.99
2018-08-18T08:02:21.579Z,1017.04
2018-08-18T08:03:21.571Z,1017.04
2018-08-18T08:04:21.544Z,1017.05
2018-08-18T08:05:21.525Z,1017.01
2018-08-18T08:06:21.510Z,1017.02
2018-08-18T08:07:21.496Z,1017.01
2018-08-18T08:08:21.494Z,1017.00
2018-08-18T08:09:21.466Z,1017.03
2018-08-18T08:10:21.448Z,1017.02
2018-08-18T08:11:21.432Z,1017.00
2018-08-18T08:12:21.435Z,1017.01
2018-08-18T08:13:21.406Z,1016.98
2018-08-18T08:14:21.396Z,1017.00
2018-08-18T08:15:21.369Z,1016.98
2018-08-18T08:16:21.358Z,1016.98
2018-08-18T08:17:21.337Z,1017.00
2018-08-18T08:18:21.422Z,1017.00
2018-08-18T08:19:21.307Z,1017.01
2018-08-18T08:20:21.291Z,1017.03
2018-08-18T08:21:21.277Z,1017.03
2018-08-18T08:22:21.266Z,1017.03
2018-08-18T08:23:21.243Z,1017.02
2018-08-18T08:24:21.234Z,1017.01
2018-08-18T08:25:21.212Z,1017.04
2018-08-18T08:26:21.198Z,1017.02
2018-08-18T08:27:21.181Z,1017.06
2018-08-18T08:28:21.166Z,1017.09
2018-08-18T08:29:21.150Z,1017.06
2018-08-18T08:30:21.134Z,1017.04
2018-08-18T08:31:21.123Z,1017.02
2018-08-18T08:32:21.113Z,1017.00
2018-08-18T08:33:21.088Z,1016.97
2018-08-18T08:34:21.075Z,1016.96
2018-08-18T08:35:21.056Z,1016.98
2018-08-18T08:36:21.042Z,1016.99
2018-08-18T08:37:21.026Z,1017.01
2018-08-18T08:38:21.014Z,1017.02
2018-08-18T08:39:21.007Z,1017.06
2018-08-18T08:40:20.981Z,1017.03
2018-08-18T08:41:20.974Z,1017.05
2018-08-18T08:42:20.959Z,1017.09
2018-08-18T08:43:21.028Z,1017.13
2018-08-18T08:44:20.925Z,1017.06
2018-08-18T08:45:20.905Z,1017.09
2018-08-18T08:46:20.888Z,1017.04
2018-08-18T08:47:20.877Z,1017.07
2018-08-18T08:48:20.861Z,1017.05
2018-08-18T08:49:20.849Z,1017.06
2018-08-18T08:50:20.832Z,1017.02
2018-08-18T08:51:20.814Z,1017.10
2018-08-18T08:52:20.808Z,1017.08
2018-08-18T08:53:20.784Z,1017.07
2018-08-18T08:54:20.776Z,1017.06
2018-08-18T08:55:20.761Z,1017.07
2018-08-18T08:56:20.748Z,1017.05
2018-08-18T08:57:20.725Z,1017.06
2018-08-18T08:58:20.709Z,1017.04
2018-08-18T08:59:20.693Z,1017.05
2018-08-18T09:00:20.679Z,1017.02
2018-08-18T09:01:20.662Z,1017.02
2018-08-18T09:02:20.651Z,1016.99
2018-08-18T09:03:20.633Z,1016.98
2018-08-18T09:04:20.618Z,1017.02
2018-08-18T09:05:20.606Z,1016.97
2018-08-18T09:06:20.588Z,1016.99
2018-08-18T09:07:20.575Z,1017.00
2018-08-18T09:08:20.559Z,1017.02
2018-08-18T09:09:20.543Z,1017.04
2018-08-18T09:10:20.636Z,1017.06
2018-08-18T09:11:20.531Z,1017.04
2018-08-18T09:12:20.500Z,1017.07
2018-08-18T09:13:20.485Z,1017.05
2018-08-18T09:14:20.470Z,1017.06
2018-08-18T09:15:20.453Z,1017.01
2018-08-18T09:16:20.445Z,1017.05
2018-08-18T09:17:20.425Z,1017.01
2018-08-18T09:18:20.413Z,1017.03
2018-08-18T09:19:20.397Z,1017.06
2018-08-18T09:20:20.383Z,1017.05
2018-08-18T09:21:20.367Z,1017.04
2018-08-18T09:22:20.351Z,1017.05
2018-08-18T09:23:20.349Z,1017.11
2018-08-18T09:24:20.325Z,1017.08
2018-08-18T09:25:20.315Z,1017.07
2018-08-18T09:26:20.318Z,1017.07
2018-08-18T09:27:20.279Z,1017.08
2018-08-18T09:28:20.273Z,1017.03
2018-08-18T09:29:20.249Z,1017.04
2018-08-18T09:30:20.253Z,1017.04
2018-08-18T09:31:20.220Z,1017.04
2018-08-18T09:32:20.207Z,1017.02
2018-08-18T09:33:20.198Z,1017.01
2018-08-18T09:34:20.190Z,1017.03
2018-08-18T09:35:20.174Z,1017.00
2018-08-18T09:36:20.235Z,1017.00
2018-08-18T09:37:20.138Z,1016.97
2018-08-18T09:38:20.128Z,1016.98
2018-08-18T09:39:20.113Z,1016.97
2018-08-18T09:40:20.095Z,1016.97
2018-08-18T09:41:20.076Z,1016.96
2018-08-18T09:42:20.065Z,1016.98
2018-08-18T09:43:20.047Z,1016.97
2018-08-18T09:44:20.034Z,1016.97
2018-08-18T09:45:20.024Z,1016.97
2018-08-18T09:46:20.030Z,1016.98
2018-08-18T09:47:19.989Z,1016.94
2018-08-18T09:48:19.975Z,1017.00
2018-08-18T09:49:19.968Z,1017.05
2018-08-18T09:50:19.954Z,1017.05
2018-08-18T09:51:19.939Z,1017.01
2018-08-18T09:52:19.952Z,1017.01
2018-08-18T09:53:19.918Z,1017.00
2018-08-18T09:54:19.889Z,1016.98
2018-08-18T09:55:19.878Z,1017.00
2018-08-18T09:56:19.866Z,1016.94
2018-08-18T09:57:19.853Z,1017.01
2018-08-18T09:58:19.837Z,1017.05
2018-08-18T09:59:19.883Z,1017.07
2018-08-18T10:00:19.803Z,1017.06
2018-08-18T10:01:19.795Z,1017.08
2018-08-18T10:02:19.782Z,1016.94
2018-08-18T10:03:19.769Z,1016.97
2018-08-18T10:04:19.746Z,1017.02
2018-08-18T10:05:19.736Z,1017.06
2018-08-18T10:06:19.776Z,1017.03
2018-08-18T10:07:19.706Z,1017.01
2018-08-18T10:08:19.690Z,1017.04
2018-08-18T10:09:19.686Z,1017.01
2018-08-18T10:10:19.669Z,1016.90
2018-08-18T10:11:19.657Z,1016.96
2018-08-18T10:12:19.635Z,1017.00
2018-08-18T10:13:19.627Z,1017.05
2018-08-18T10:14:19.606Z,1016.97
2018-08-18T10:15:19.655Z,1016.93
2018-08-18T10:16:19.576Z,1016.99
2018-08-18T10:17:19.564Z,1016.91
2018-08-18T10:18:19.549Z,1016.89
2018-08-18T10:19:19.547Z,1016.82
2018-08-18T10:20:19.520Z,1016.84
2018-08-18T10:21:19.510Z,1016.81
2018-08-18T10:22:19.499Z,1016.91
2018-08-18T10:23:19.492Z,1016.92
2018-08-18T10:24:19.469Z,1016.76
2018-08-18T10:25:19.451Z,1016.80
2018-08-18T10:26:19.433Z,1016.87
2018-08-18T10:27:19.444Z,1016.82
2018-08-18T10:28:19.413Z,1016.84
2018-08-18T10:29:19.392Z,1016.85
2018-08-18T10:30:19.390Z,1016.89
2018-08-18T10:31:19.367Z,1016.84
2018-08-18T10:32:19.348Z,1016.86
2018-08-18T10:33:19.385Z,1016.92
2018-08-18T10:34:19.321Z,1016.93
2018-08-18T10:35:19.317Z,1016.87
2018-08-18T10:36:19.292Z,1016.82
2018-08-18T10:37:19.279Z,1016.86
2018-08-18T10:38:19.268Z,1016.78
2018-08-18T10:39:19.253Z,1016.83
2018-08-18T10:40:19.246Z,1016.82
2018-08-18T10:41:19.223Z,1016.84
2018-08-18T10:42:19.208Z,1016.78
2018-08-18T10:43:19.195Z,1016.76
2018-08-18T10:44:19.179Z,1016.65
2018-08-18T10:45:19.164Z,1016.70
2018-08-18T10:46:19.149Z,1016.72
2018-08-18T10:47:19.141Z,1016.74
2018-08-18T10:48:19.121Z,1016.67
2018-08-18T10:49:19.114Z,1016.66
2018-08-18T10:50:19.096Z,1016.59
2018-08-18T10:51:19.077Z,1016.64
2018-08-18T10:52:19.064Z,1016.66
2018-08-18T10:53:19.053Z,1016.64
2018-08-18T10:54:19.043Z,1016.64
2018-08-18T10:55:19.028Z,1016.69
2018-08-18T10:56:19.013Z,1016.68
2018-08-18T10:57:18.996Z,1016.66
2018-08-18T10:58:18.981Z,1016.71
2018-08-18T10:59:18.967Z,1016.76
2018-08-18T11:00:18.952Z,1016.68
2018-08-18T11:01:18.942Z,1016.65
2018-08-18T11:02:18.931Z,1016.73
2018-08-18T11:03:18.913Z,1016.67
2018-08-18T11:04:18.901Z,1016.61
2018-08-18T11:05:18.883Z,1016.65
2018-08-18T11:06:18.872Z,1016.65
2018-08-18T11:07:18.871Z,1016.68
2018-08-18T11:08:18.857Z,1016.68
2018-08-18T11:09:18.829Z,1016.71
2018-08-18T11:10:18.817Z,1016.66
2018-08-18T11:11:18.802Z,1016.62
2018-08-18T11:12:18.793Z,1016.62
2018-08-18T11:13:18.773Z,1016.66
2018-08-18T11:14:18.762Z,1016.65
2018-08-18T11:15:18.747Z,1016.66
2018-08-18T11:16:18.740Z,1016.74
2018-08-18T11:17:18.719Z,1016.71
2018-08-18T11:18:18.706Z,1016.72
2018-08-18T11:19:18.697Z,1016.70
2018-08-18T11:20:18.686Z,1016.61
2018-08-18T11:21:18.677Z,1016.70
2018-08-18T11:22:18.649Z,1016.70
2018-08-18T11:23:18.638Z,1016.72
2018-08-18T11:24:18.624Z,1016.72
2018-08-18T11:25:18.609Z,1016.77
2018-08-18T11:26:18.598Z,1016.80
2018-08-18T11:27:18.583Z,1016.72
2018-08-18T11:28:18.600Z,1016.65
2018-08-18T11:29:18.556Z,1016.59
2018-08-18T11:30:18.544Z,1016.61
2018-08-18T11:31:18.538Z,1016.64
2018-08-18T11:32:18.537Z,1016.57
2018-08-18T11:33:18.504Z,1016.62
2018-08-18T11:34:18.492Z,1016.66
2018-08-18T11:35:18.478Z,1016.56
2018-08-18T11:36:18.462Z,1016.63
2018-08-18T11:37:18.457Z,1016.67
2018-08-18T11:38:18.436Z,1016.69
2018-08-18T11:39:18.422Z,1016.67
2018-08-18T11:40:18.409Z,1016.65
2018-08-18T11:41:18.406Z,1016.64
2018-08-18T11:42:18.385Z,1016.61
2018-08-18T11:43:18.373Z,1016.55
2018-08-18T11:44:18.362Z,1016.54
2018-08-18T11:45:18.344Z,1016.51
2018-08-18T11:46:18.352Z,1016.51
2018-08-18T11:47:18.317Z,1016.45
2018-08-18T11:48:18.310Z,1016.45
2018-08-18T11:49:18.289Z,1016.46
2018-08-18T11:50:18.276Z,1016.49
2018-08-18T11:51:18.269Z,1016.50
2018-08-18T11:52:18.251Z,1016.49
2018-08-18T11:53:18.237Z,1016.47
2018-08-18T11:54:18.225Z,1016.46
2018-08-18T11:55:18.212Z,1016.50
2018-08-18T11:56:18.199Z,1016.48
2018-08-18T11:57:18.182Z,1016.47
2018-08-18T11:58:18.175Z,1016.47
2018-08-18T11:59:18.167Z,1016.49
2018-08-18T12:00:18.148Z,1016.48
2018-08-18T12:01:18.138Z,1016.44
2018-08-18T12:02:18.119Z,1016.49
2018-08-18T12:03:18.108Z,1016.48
2018-08-18T12:04:18.095Z,1016.52
2018-08-18T12:05:18.081Z,1016.51